• Join FlightAware (Why Join?)
  • Login
  • US Flag 
10:11AM EDT


 

Airport Tracker/Info


-or-


 

Live Flight TrackerFlight Track Log ✈ VH-VQB ✈ 29-Apr-2013 ✈ YMML / MEL - NZCH / CHC

Flight Track Log - Related Links

Times and Time Zones

All times are in EDT time to prevent confusion due to time zone crossing. See the VH-VQB flight status page for this flight to view local times or setup timezone preferences in your user account.

Time Position Orientation Groundspeed Altitude Reporting Facility
EDT Latitude Longitude Course Direction KTS MPH feet Rate Location/Type
10:21AM -37.6600 144.8160 288° West 160 184 700  Level FlightAware
10:21AM -37.6581 144.7864 288° West 160 184 2,000 1,920 Climbing Aus ATC (RADAR)
10:21AM -37.6590 144.7920 288° West 174 200 1,500 180 Descending FlightAware
10:22AM -37.6560 144.7570 276° West 210 242 2,100 1,500 Climbing FlightAware
10:22AM -37.6540 144.7180 274° West 237 273 3,000 2,040 Climbing FlightAware
10:23AM -37.6520 144.6850 274° West 252 290 4,000 2,700 Climbing FlightAware
10:23AM -37.6500 144.6370 273° West 266 306 5,500 2,880 Climbing FlightAware
10:24AM -37.6610 144.5780 257° West 280 322 7,400 3,000 Climbing FlightAware
10:24AM -37.6780 144.5650 211° Southwest 276 318 8,300 3,360 Climbing FlightAware
10:24AM -37.6900 144.5630 188° South 277 319 8,800 3,000 Climbing FlightAware
10:25AM -37.7160 144.5700 168° South 290 334 9,800 2,400 Climbing FlightAware
10:25AM -37.7260 144.5790 145° Southeast 295 339 10,000 1,200 Climbing FlightAware
10:25AM -37.7390 144.6060 121° Southeast 330 380 10,300 2,040 Climbing FlightAware
10:25AM -37.7483 144.6521 121° Southeast 330 380 11,200 1,320 Climbing Aus ATC (RADAR)
10:26AM -37.7540 144.6850 121° Southeast 368 423 11,200 1,380 Level FlightAware
10:26AM -37.7750 144.7760 106° East 386 444 12,700 2,100 Climbing FlightAware
10:27AM -37.8070 144.8650 114° Southeast 399 459 14,200 2,580 Climbing FlightAware
10:27AM -37.8289 144.9273 114° Southeast 403 464 15,500 1,920 Climbing Aus ATC (RADAR)
10:28AM -37.8390 144.9550 114° Southeast 413 475 15,500 1,800 Level FlightAware
10:28AM -37.8772 145.0619 114° Southeast 421 484 17,300 1,680 Climbing Aus ATC (RADAR)
10:28AM -37.8720 145.0480 114° Southeast 428 493 16,800 1,500 Descending FlightAware
10:29AM -37.9080 145.1480 115° Southeast 436 502 18,300 2,460 Climbing FlightAware
10:30AM -37.9310 145.2125 115° Southeast 435 501 19,500 1,860 Climbing Aus ATC (RADAR)
10:30AM -37.9450 145.2500 115° Southeast 443 510 19,700 1,260 Climbing FlightAware
10:30AM -37.9760 145.3370 115° Southeast 447 514 20,700 2,460 Climbing FlightAware
10:31AM -37.9819 145.3549 115° Southeast 444 511 21,300 960 Climbing Aus ATC (RADAR)
10:31AM -38.0260 145.4810 114° Southeast 476 548 21,700 660 Climbing FlightAware
10:32AM -38.0830 145.6410 114° Southeast 498 573 22,600 1,080 Climbing FlightAware
10:33AM -38.1190 145.7430 114° Southeast 502 578 23,500 1,680 Climbing FlightAware
10:34AM -38.1531 145.8370 114° Southeast 501 577 24,600 1,320 Climbing Aus ATC (RADAR)
10:34AM -38.1570 145.8540 114° Southeast 511 588 24,400 480 Descending FlightAware
10:35AM -38.2020 145.9820 114° Southeast 521 600 25,100 840 Climbing FlightAware
10:35AM -38.2420 146.0970 114° Southeast 531 611 25,600 1,080 Climbing FlightAware
10:36AM -38.2802 146.2042 114° Southeast 532 612 26,500 900 Climbing Aus ATC (RADAR)
10:36AM -38.2830 146.2170 114° Southeast 539 620 26,300 660 Descending FlightAware
10:37AM -38.3270 146.3450 114° Southeast 544 626 27,100 960 Climbing FlightAware
10:37AM -38.3670 146.4610 114° Southeast 550 633 27,600 1,080 Climbing FlightAware
10:38AM -38.4079 146.5737 114° Southeast 546 628 28,500 900 Climbing Aus ATC (RADAR)
10:38AM -38.4140 146.5990 114° Southeast 556 640 28,300 420 Descending FlightAware
10:39AM -38.4550 146.7190 114° Southeast 559 643 28,900 1,080 Climbing FlightAware
10:39AM -38.5000 146.8550 113° Southeast 556 640 29,900 1,620 Climbing FlightAware
10:40AM -38.5351 146.9510 113° Southeast 548 631 30,900 1,020 Climbing Aus ATC (RADAR)
10:40AM -38.5410 146.9760 113° Southeast 555 639 30,600 540 Descending FlightAware
10:41AM -38.5810 147.0960 113° Southeast 552 635 31,400 1,380 Climbing FlightAware
10:41AM -38.6207 147.2072 113° Southeast 546 628 32,300 900 Climbing Aus ATC (RADAR)
10:42AM -38.6280 147.2370 113° Southeast 555 639 32,100 420 Descending FlightAware
10:42AM -38.6660 147.3500 113° Southeast 554 638 32,700 660 Climbing FlightAware
10:43AM -38.7140 147.4940 113° Southeast 562 647 33,100 600 Climbing FlightAware
10:44AM -38.7530 147.6140 113° Southeast 565 650 33,600 780 Climbing FlightAware
10:44AM -38.7930 147.7380 113° Southeast 563 648 34,200 660 Climbing FlightAware
10:45AM -38.8410 147.8820 113° Southeast 570 656 34,600 840 Climbing FlightAware
10:45AM -38.8689 147.9593 113° Southeast 557 641 35,200 480 Climbing Aus ATC (RADAR)
10:46AM -38.8840 148.0140 113° Southeast 575 662 35,000 -240 Descending FlightAware
10:46AM -38.9260 148.1480 112° Southeast 571 657 35,000 360 Level FlightAware
10:47AM -38.9494 148.2104 112° Southeast 558 642 35,400  Climbing Aus ATC (RADAR)
10:47AM -38.9650 148.2700 112° Southeast 571 657 35,000  Descending FlightAware
10:47AM -38.9963 148.3503 112° Southeast 556 640 35,400  Climbing Aus ATC (RADAR)
10:48AM -39.0090 148.4060 112° Southeast 572 658 35,000 -420 Descending FlightAware
10:48AM -39.0400 148.5060 112° Southeast 572 658 35,000 600 Level FlightAware
10:48AM -39.0558 148.5391 112° Southeast 556 640 35,400  Climbing Aus ATC (RADAR)
10:49AM -39.0740 148.6130 112° Southeast 572 658 35,000  Descending FlightAware
10:50AM -39.1342 148.7914 112° Southeast 558 642 35,400  Climbing Aus ATC (RADAR)
10:50AM -39.1160 148.7480 112° Southeast 572 658 35,000  Descending FlightAware
10:51AM -39.1803 148.9322 112° Southeast 557 641 35,400  Climbing Aus ATC (RADAR)
10:51AM -39.1500 148.8550 112° Southeast 572 658 35,000 -600 Descending FlightAware
10:51AM -39.1840 148.9630 112° Southeast 572 658 35,000 420 Level FlightAware
10:52AM -39.2397 149.1209 112° Southeast 553 636 35,400  Climbing Aus ATC (RADAR)
10:52AM -39.2170 149.0700 112° Southeast 572 658 35,000 -420 Descending FlightAware
10:53AM -39.2510 149.1780 112° Southeast 572 658 35,000  Level FlightAware
10:53AM -39.2930 149.3130 112° Southeast 572 658 35,000  Level FlightAware
10:54AM -39.3270 149.4210 112° Southeast 572 658 35,000  Level FlightAware
10:55AM -39.3600 149.5290 112° Southeast 572 658 35,000  Level FlightAware
10:55AM -39.3940 149.6360 112° Southeast 572 658 35,000  Level FlightAware
10:56AM -39.4280 149.7440 112° Southeast 572 658 35,000  Level FlightAware
10:57AM -39.5018 149.9867 291° West 35,000  Level Aus ATC (Calculated)
10:57AM -39.4700 149.8800 112° Southeast 572 658 35,000  Level FlightAware
10:58AM -39.5606 150.1856 290° West 35,000  Level Aus ATC (Calculated)
10:58AM -39.5040 149.9880 112° Southeast 572 658 35,000 -240 Level FlightAware
10:59AM -39.6336 150.4347 110° East 35,000 -240 Level Aus ATC (Calculated)
11:00AM -39.6578 150.5178 110° East 35,000 -240 Level Aus ATC (Calculated)
11:00AM -39.7211 150.7404 110° East 35,000 -240 Level Aus ATC (Calculated)
11:01AM -39.7080 150.6949 110° East  Level Estimated
11:02AM -39.7727 150.9237 110° East  Level Estimated
11:02AM -39.8125 151.0645 110° East 35,000  Level Aus ATC (Calculated)
11:04AM -39.8767 151.2958 110° East  Level Estimated
11:04AM -39.9272 151.4776 110° East 35,000  Level Aus ATC (Calculated)
11:05AM -39.9257 151.4740 110° East  Level Estimated
11:06AM -39.9784 151.6650 110° East  Level Estimated
11:07AM -40.0269 151.8438 110° East  Level Estimated
11:08AM -40.0751 152.0227 109° East  Level Estimated
11:09AM -40.1231 152.2020 109° East  Level Estimated
11:10AM -40.1707 152.3815 109° East  Level Estimated
11:11AM -40.2181 152.5612 109° East  Level Estimated
11:12AM -40.2652 152.7412 109° East  Level Estimated
11:13AM -40.3120 152.9214 109° East  Level Estimated
11:14AM -40.3586 153.1019 109° East  Level Estimated
11:15AM -40.4048 153.2827 109° East  Level Estimated
11:16AM -40.4508 153.4637 109° East  Level Estimated
11:17AM -40.4965 153.6449 108° East  Level Estimated
11:18AM -40.5419 153.8264 108° East  Level Estimated
11:19AM -40.5871 154.0081 108° East  Level Estimated
11:20AM -40.6319 154.1901 108° East  Level Estimated
11:21AM -40.6765 154.3723 108° East  Level Estimated
11:22AM -40.7207 154.5547 108° East  Level Estimated
11:22AM -40.8116 154.9174 107° East 35,000  Level Aus ATC (Calculated)
11:23AM -40.7647 154.7374 108° East  Level Estimated
11:24AM -40.8658 155.1465 107° East  Level Estimated
11:25AM -40.9088 155.3300 107° East  Level Estimated
11:26AM -40.9515 155.5137 107° East  Level Estimated
11:27AM -40.9939 155.6977 107° East  Level Estimated
11:28AM -41.0361 155.8819 107° East  Level Estimated
11:29AM -41.0779 156.0664 107° East  Level Estimated
11:30AM -41.1195 156.2510 107° East  Level Estimated
11:31AM -41.1607 156.4360 107° East  Level Estimated
11:32AM -41.2017 156.6211 106° East  Level Estimated
11:33AM -41.2423 156.8065 106° East  Level Estimated
11:34AM -41.2827 156.9921 106° East  Level Estimated
11:35AM -41.3228 157.1779 106° East  Level Estimated
11:36AM -41.3598 157.3514 106° East  Level Estimated
11:37AM -41.3967 157.5251 106° East  Level Estimated
11:37AM -41.4651 157.8335 105° East 35,000  Level Aus ATC (Calculated)
11:37AM -41.4817 157.9130 105° East 35,000 -360 Level Aus ATC (Calculated)
11:38AM -41.5038 158.0204 105° East  Level Estimated
11:39AM -41.5381 158.1873 105° East  Level Estimated
11:40AM -41.5762 158.3746 105° East  Level Estimated
11:41AM -41.6140 158.5622 105° East  Level Estimated
11:42AM -41.6514 158.7499 105° East  Level Estimated
11:43AM -41.6886 158.9379 105° East  Level Estimated
11:44AM -41.7255 159.1261 105° East  Level Estimated
11:45AM -41.7620 159.3145 105° East  Level Estimated
11:45AM -41.8021 159.5117 104° East 35,000  Level Aus ATC (Calculated)
11:46AM -41.7983 159.5031 105° East  Level Estimated
11:47AM -41.8481 159.7541 104° East  Level Estimated
11:47AM -41.8635 159.8334 104° East 35,000  Level Aus ATC (Calculated)
11:47AM -41.8635 159.8334 104° East 35,000 -420 Level Aus ATC (Calculated)
11:48AM -41.8988 160.0226 104° East  Level Estimated
11:49AM -41.9339 160.2120 104° East  Level Estimated
11:50AM -41.9686 160.4016 104° East  Level Estimated
11:51AM -42.0031 160.5915 104° East  Level Estimated
11:52AM -42.0372 160.7815 104° East  Level Estimated
11:53AM -42.0710 160.9718 104° East  Level Estimated
11:54AM -42.1045 161.1622 103° East  Level Estimated
11:55AM -42.1376 161.3528 103° East  Level Estimated
11:56AM -42.1705 161.5437 103° East  Level Estimated
11:57AM -42.2030 161.7347 103° East  Level Estimated
11:57AM -42.2128 161.7756 103° East 35,000  Level Aus ATC (Calculated)
11:58AM -42.2449 161.9669 103° East  Level Estimated
11:59AM -42.2767 162.1584 103° East  Level Estimated
12:00PM -42.3081 162.3501 103° East  Level Estimated
12:01PM -42.3393 162.5420 102° East  Level Estimated
12:02PM -42.3701 162.7340 102° East  Level Estimated
12:03PM -42.4006 162.9263 102° East  Level Estimated
12:04PM -42.4308 163.1187 102° East  Level Estimated
12:05PM -42.4606 163.3113 102° East  Level Estimated
12:06PM -42.4902 163.5042 102° East  Level Estimated
12:07PM -42.5194 163.6971 102° East  Level Estimated
12:08PM -42.5483 163.8903 102° East  Level Estimated
12:09PM -42.5768 164.0837 101° East  Level Estimated
12:10PM -42.6051 164.2772 101° East  Level Estimated
12:11PM -42.6330 164.4709 101° East  Level Estimated
12:12PM -42.6606 164.6647 101° East  Level Estimated
12:13PM -42.6878 164.8588 101° East  Level Estimated
12:14PM -42.7147 165.0530 101° East  Level Estimated
12:15PM -42.7413 165.2474 101° East  Level Estimated
12:16PM -42.7676 165.4419 100° East  Level Estimated
12:17PM -42.7936 165.6366 100° East  Level Estimated
12:18PM -42.8192 165.8315 100° East  Level Estimated
12:19PM -42.8445 166.0265 100° East  Level Estimated
12:20PM -42.8694 166.2217 100° East  Level Estimated
12:21PM -42.8940 166.4171 100° East  Level Estimated
12:22PM -42.9183 166.6126 100° East  Level Estimated
12:23PM -42.9423 166.8082 100° East  Level Estimated
12:24PM -42.9659 167.0040 99° East  Level Estimated
12:25PM -42.9892 167.2000 99° East  Level Estimated
12:26PM -43.0121 167.3961 99° East  Level Estimated
12:27PM -43.0347 167.5923 99° East  Level Estimated
12:28PM -43.0570 167.7887 99° East  Level Estimated
12:29PM -43.0790 167.9852 99° East  Level Estimated
12:30PM -43.1006 168.1819 99° East  Level Estimated
12:31PM -43.1218 168.3787 98° East  Level Estimated
12:32PM -43.1428 168.5757 98° East  Level Estimated
12:33PM -43.1634 168.7727 98° East  Level Estimated
12:34PM -43.1836 168.9700 98° East  Level Estimated
12:35PM -43.2036 169.1673 98° East  Level Estimated
12:36PM -43.2231 169.3648 98° East  Level Estimated
12:37PM -43.2424 169.5623 98° East  Level Estimated
12:38PM -43.2613 169.7601 98° East  Level Estimated
12:39PM -43.2798 169.9579 97° East  Level Estimated
12:40PM -43.2981 170.1559 97° East  Level Estimated
12:41PM -43.3159 170.3539 97° East  Level Estimated
12:42PM -43.3335 170.5521 97° East  Level Estimated
12:43PM -43.3507 170.7504 97° East  Level Estimated
12:43PM -43.3900 171.6220 97° East 407 468 14,200  Level FlightAware
12:44PM -43.3675 170.9489 97° East  Level Estimated
12:44PM -43.3790 171.7370 83° East 387 445 12,900  Level FlightAware
12:45PM -43.3690 171.8300 82° East 389 448 11,600 -1,680 Descending FlightAware
12:45PM -43.3580 171.9270 81° East 367 422 10,700 -900 Descending FlightAware
12:46PM -43.3480 172.0230 82° East 329 379 10,400 -720 Descending FlightAware
12:47PM -43.3390 172.1040 81° East 314 361 9,700 -1,320 Descending FlightAware
12:47PM -43.3330 172.1630 82° East 313 360 8,900 -1,620 Descending FlightAware
12:47PM -43.3290 172.1940 80° East 313 360 8,500 -900 Descending FlightAware
12:48PM -43.3240 172.2430 82° East 302 348 8,300 -480 Descending FlightAware
12:48PM -43.3180 172.2980 81° East 289 333 8,100 -240 Descending FlightAware
12:49PM -43.3130 172.3450 82° East 282 325 8,100  Level FlightAware
12:49PM -43.3070 172.3980 81° East 278 320 8,100 -1,200 Level FlightAware
12:50PM -43.3010 172.4500 81° East 290 334 6,900 -2,220 Descending FlightAware
12:50PM -43.2950 172.5000 81° East 292 336 6,100 -1,800 Descending FlightAware
12:51PM -43.2890 172.5520 81° East 290 334 5,300 -1,500 Descending FlightAware
12:51PM -43.2860 172.5800 82° East 279 321 5,000 -900 Descending FlightAware
12:51PM -43.2820 172.6210 82° East 253 291 4,700 -780 Descending FlightAware
12:52PM -43.2950 172.6830 106° East 219 252 4,100 -780 Descending FlightAware
12:52PM -43.3130 172.7080 135° Southeast 205 236 3,800 -720 Descending FlightAware
12:53PM -43.3210 172.7110 165° South 198 228 3,700 -600 Descending FlightAware
12:53PM -43.3390 172.7040 196° South 192 221 3,500 -960 Descending FlightAware
12:53PM -43.3570 172.6840 219° Southwest 189 217 3,000 -1,080 Descending FlightAware
12:54PM -43.3670 172.6730 219° Southwest 187 215 2,800 -960 Descending FlightAware
12:54PM -43.3860 172.6510 220° Southwest 155 178 2,300 -900 Descending FlightAware
12:55PM -43.4020 172.6330 219° Southwest 149 171 1,900 -840 Descending FlightAware
12:55PM -43.4100 172.6230 222° Southwest 151 174 1,700 -780 Descending FlightAware
12:56PM -43.4470 172.5800 220° Southwest 144 166 800 60 Descending FlightAware
12:58PM -43.4900 172.5320 219° Southwest 141 162 2,000 780 Climbing FlightAware
12:59PM -43.5360 172.4820 218° Southwest 178 205 3,000 360 Climbing FlightAware
01:00PM -43.5810 172.4240 223° Southwest 200 230 3,000  Level FlightAware
01:03PM -43.4875 172.5339 40° Northeast  Level FlightAware Approximate
01:04PM -43.4894 172.5322 40° Northeast  Level Estimated
01:05PM -43.4875 172.5339 40° Northeast  Level FlightAware Approximate
01:06PM -43.4894 172.5322 40° Northeast  Level Estimated
01:07PM -43.4875 172.5339 40° Northeast  Level FlightAware Approximate
01:08PM -43.4894 172.5322 40° Northeast  Level Estimated
01:09PM -43.4875 172.5339 40° Northeast  Level FlightAware Approximate